sensor_id;sensor_type;location;lat;lon;timestamp;P1;durP1;ratioP1;P2;durP2;ratioP2
65234;SDS011;51820;48.374;10.930;2022-11-20T00:01:38;7.25;;;3.17;;
65234;SDS011;51820;48.374;10.930;2022-11-20T00:04:08;9.68;;;3.38;;
65234;SDS011;51820;48.374;10.930;2022-11-20T00:06:39;6.55;;;3.08;;
65234;SDS011;51820;48.374;10.930;2022-11-20T00:09:09;8.02;;;2.55;;
65234;SDS011;51820;48.374;10.930;2022-11-20T00:11:38;6.88;;;2.85;;
65234;SDS011;51820;48.374;10.930;2022-11-20T00:14:06;7.63;;;3.05;;
65234;SDS011;51820;48.374;10.930;2022-11-20T00:16:37;8.88;;;3.22;;
65234;SDS011;51820;48.374;10.930;2022-11-20T00:19:05;7.82;;;2.88;;
65234;SDS011;51820;48.374;10.930;2022-11-20T00:21:34;8.57;;;3.30;;
65234;SDS011;51820;48.374;10.930;2022-11-20T00:24:02;7.93;;;2.88;;
65234;SDS011;51820;48.374;10.930;2022-11-20T00:26:31;8.70;;;3.00;;
65234;SDS011;51820;48.374;10.930;2022-11-20T00:29:00;7.97;;;2.75;;
65234;SDS011;51820;48.374;10.930;2022-11-20T00:31:29;9.68;;;3.00;;
65234;SDS011;51820;48.374;10.930;2022-11-20T00:34:00;6.07;;;2.42;;
65234;SDS011;51820;48.374;10.930;2022-11-20T00:36:29;8.15;;;2.70;;
65234;SDS011;51820;48.374;10.930;2022-11-20T00:39:00;6.90;;;2.53;;
65234;SDS011;51820;48.374;10.930;2022-11-20T00:41:29;5.82;;;2.53;;
65234;SDS011;51820;48.374;10.930;2022-11-20T00:43:57;9.18;;;2.75;;
65234;SDS011;51820;48.374;10.930;2022-11-20T00:46:26;6.53;;;2.45;;
65234;SDS011;51820;48.374;10.930;2022-11-20T00:48:55;8.73;;;2.70;;
65234;SDS011;51820;48.374;10.930;2022-11-20T00:51:25;14.05;;;6.43;;
65234;SDS011;51820;48.374;10.930;2022-11-20T00:53:55;7.97;;;3.40;;
65234;SDS011;51820;48.374;10.930;2022-11-20T00:56:23;6.80;;;2.80;;
65234;SDS011;51820;48.374;10.930;2022-11-20T00:58:52;7.80;;;2.80;;
65234;SDS011;51820;48.374;10.930;2022-11-20T01:01:21;7.35;;;2.67;;
65234;SDS011;51820;48.374;10.930;2022-11-20T01:03:52;6.53;;;2.55;;
65234;SDS011;51820;48.374;10.930;2022-11-20T01:06:22;6.93;;;2.67;;
65234;SDS011;51820;48.374;10.930;2022-11-20T01:08:53;6.65;;;2.90;;
65234;SDS011;51820;48.374;10.930;2022-11-20T01:11:23;6.90;;;2.55;;
65234;SDS011;51820;48.374;10.930;2022-11-20T01:13:53;7.55;;;3.08;;
65234;SDS011;51820;48.374;10.930;2022-11-20T01:16:23;7.28;;;2.78;;
65234;SDS011;51820;48.374;10.930;2022-11-20T01:18:53;8.57;;;2.90;;
65234;SDS011;51820;48.374;10.930;2022-11-20T01:21:24;8.05;;;3.17;;
65234;SDS011;51820;48.374;10.930;2022-11-20T01:23:55;6.43;;;2.65;;
65234;SDS011;51820;48.374;10.930;2022-11-20T01:26:24;6.05;;;2.65;;
65234;SDS011;51820;48.374;10.930;2022-11-20T01:28:53;7.30;;;2.88;;
65234;SDS011;51820;48.374;10.930;2022-11-20T01:31:23;6.93;;;2.63;;
65234;SDS011;51820;48.374;10.930;2022-11-20T01:33:54;7.28;;;2.95;;
65234;SDS011;51820;48.374;10.930;2022-11-20T01:36:24;8.25;;;3.20;;
65234;SDS011;51820;48.374;10.930;2022-11-20T01:38:56;6.72;;;2.50;;
65234;SDS011;51820;48.374;10.930;2022-11-20T01:41:26;10.02;;;2.30;;
65234;SDS011;51820;48.374;10.930;2022-11-20T01:44:14;8.20;;;2.80;;
65234;SDS011;51820;48.374;10.930;2022-11-20T01:46:47;6.88;;;2.67;;
65234;SDS011;51820;48.374;10.930;2022-11-20T01:49:26;7.78;;;2.80;;
65234;SDS011;51820;48.374;10.930;2022-11-20T01:52:00;6.95;;;2.88;;
65234;SDS011;51820;48.374;10.930;2022-11-20T01:54:34;10.20;;;3.13;;
65234;SDS011;51820;48.374;10.930;2022-11-20T01:57:05;8.30;;;2.90;;
65234;SDS011;51820;48.374;10.930;2022-11-20T01:59:37;7.35;;;2.60;;
65234;SDS011;51820;48.374;10.930;2022-11-20T02:02:17;7.22;;;2.75;;
65234;SDS011;51820;48.374;10.930;2022-11-20T02:04:45;6.13;;;2.67;;
65234;SDS011;51820;48.374;10.930;2022-11-20T02:07:14;8.02;;;3.20;;
65234;SDS011;51820;48.374;10.930;2022-11-20T02:09:45;6.68;;;2.95;;
65234;SDS011;51820;48.374;10.930;2022-11-20T02:12:13;6.53;;;2.70;;
65234;SDS011;51820;48.374;10.930;2022-11-20T02:14:56;6.97;;;2.78;;
65234;SDS011;51820;48.374;10.930;2022-11-20T02:17:25;6.35;;;2.83;;
65234;SDS011;51820;48.374;10.930;2022-11-20T02:19:54;7.97;;;3.30;;
65234;SDS011;51820;48.374;10.930;2022-11-20T02:22:24;7.00;;;3.00;;
65234;SDS011;51820;48.374;10.930;2022-11-20T02:24:59;7.75;;;2.80;;
65234;SDS011;51820;48.374;10.930;2022-11-20T02:27:31;6.43;;;2.88;;
65234;SDS011;51820;48.374;10.930;2022-11-20T02:30:00;6.68;;;2.95;;
65234;SDS011;51820;48.374;10.930;2022-11-20T02:32:35;10.07;;;3.10;;
65234;SDS011;51820;48.374;10.930;2022-11-20T02:35:07;7.68;;;2.55;;
65234;SDS011;51820;48.374;10.930;2022-11-20T02:37:39;7.45;;;2.78;;
65234;SDS011;51820;48.374;10.930;2022-11-20T02:40:09;6.22;;;2.75;;
65234;SDS011;51820;48.374;10.930;2022-11-20T02:42:38;6.50;;;2.75;;
65234;SDS011;51820;48.374;10.930;2022-11-20T02:45:07;6.88;;;2.80;;
65234;SDS011;51820;48.374;10.930;2022-11-20T02:47:36;6.72;;;2.67;;
65234;SDS011;51820;48.374;10.930;2022-11-20T02:50:05;5.43;;;2.42;;
65234;SDS011;51820;48.374;10.930;2022-11-20T02:52:33;6.68;;;3.00;;
65234;SDS011;51820;48.374;10.930;2022-11-20T02:55:02;7.72;;;3.08;;
65234;SDS011;51820;48.374;10.930;2022-11-20T02:57:32;8.57;;;2.92;;
65234;SDS011;51820;48.374;10.930;2022-11-20T03:00:00;8.70;;;3.00;;
65234;SDS011;51820;48.374;10.930;2022-11-20T03:02:29;9.32;;;2.88;;
65234;SDS011;51820;48.374;10.930;2022-11-20T03:04:57;8.20;;;2.90;;
65234;SDS011;51820;48.374;10.930;2022-11-20T03:07:26;7.20;;;2.67;;
65234;SDS011;51820;48.374;10.930;2022-11-20T03:09:55;6.13;;;2.78;;
65234;SDS011;51820;48.374;10.930;2022-11-20T03:12:23;8.70;;;2.78;;
65234;SDS011;51820;48.374;10.930;2022-11-20T03:14:53;6.03;;;2.70;;
65234;SDS011;51820;48.374;10.930;2022-11-20T03:17:21;6.63;;;2.63;;
65234;SDS011;51820;48.374;10.930;2022-11-20T03:19:50;8.70;;;3.15;;
65234;SDS011;51820;48.374;10.930;2022-11-20T03:22:18;7.68;;;2.60;;
65234;SDS011;51820;48.374;10.930;2022-11-20T03:24:47;10.32;;;2.90;;
65234;SDS011;51820;48.374;10.930;2022-11-20T03:27:15;6.93;;;2.80;;
65234;SDS011;51820;48.374;10.930;2022-11-20T03:29:44;7.38;;;2.70;;
65234;SDS011;51820;48.374;10.930;2022-11-20T03:32:13;6.22;;;2.65;;
65234;SDS011;51820;48.374;10.930;2022-11-20T03:34:42;7.07;;;2.90;;
65234;SDS011;51820;48.374;10.930;2022-11-20T03:37:10;6.30;;;2.83;;
65234;SDS011;51820;48.374;10.930;2022-11-20T03:39:39;7.80;;;2.60;;
65234;SDS011;51820;48.374;10.930;2022-11-20T03:42:08;5.80;;;2.25;;
65234;SDS011;51820;48.374;10.930;2022-11-20T03:44:57;6.10;;;2.22;;
65234;SDS011;51820;48.374;10.930;2022-11-20T03:47:27;8.10;;;2.65;;
65234;SDS011;51820;48.374;10.930;2022-11-20T03:49:55;6.18;;;2.30;;
65234;SDS011;51820;48.374;10.930;2022-11-20T03:52:23;7.97;;;2.30;;
65234;SDS011;51820;48.374;10.930;2022-11-20T03:54:52;6.00;;;2.38;;
65234;SDS011;51820;48.374;10.930;2022-11-20T03:57:20;6.00;;;2.45;;
65234;SDS011;51820;48.374;10.930;2022-11-20T03:59:49;5.93;;;2.35;;
65234;SDS011;51820;48.374;10.930;2022-11-20T04:02:17;8.35;;;2.50;;
65234;SDS011;51820;48.374;10.930;2022-11-20T04:04:47;6.55;;;2.22;;
65234;SDS011;51820;48.374;10.930;2022-11-20T04:07:16;7.13;;;2.10;;
65234;SDS011;51820;48.374;10.930;2022-11-20T04:09:44;7.38;;;2.30;;
65234;SDS011;51820;48.374;10.930;2022-11-20T04:12:13;6.55;;;2.60;;
65234;SDS011;51820;48.374;10.930;2022-11-20T04:14:41;6.80;;;2.23;;
65234;SDS011;51820;48.374;10.930;2022-11-20T04:17:10;6.28;;;2.05;;
65234;SDS011;51820;48.374;10.930;2022-11-20T04:19:38;7.13;;;2.30;;
65234;SDS011;51820;48.374;10.930;2022-11-20T04:22:07;5.75;;;2.33;;
65234;SDS011;51820;48.374;10.930;2022-11-20T04:24:37;6.78;;;2.50;;
65234;SDS011;51820;48.374;10.930;2022-11-20T04:27:06;7.70;;;2.58;;
65234;SDS011;51820;48.374;10.930;2022-11-20T04:29:34;7.75;;;2.40;;
65234;SDS011;51820;48.374;10.930;2022-11-20T04:32:03;7.03;;;2.53;;
65234;SDS011;51820;48.374;10.930;2022-11-20T04:34:31;6.50;;;2.45;;
65234;SDS011;51820;48.374;10.930;2022-11-20T04:37:00;8.00;;;3.00;;
65234;SDS011;51820;48.374;10.930;2022-11-20T04:39:30;6.65;;;2.35;;
65234;SDS011;51820;48.374;10.930;2022-11-20T04:41:58;6.28;;;2.55;;
65234;SDS011;51820;48.374;10.930;2022-11-20T04:44:44;5.70;;;2.13;;
65234;SDS011;51820;48.374;10.930;2022-11-20T04:47:12;7.88;;;2.42;;
65234;SDS011;51820;48.374;10.930;2022-11-20T04:49:41;5.65;;;2.20;;
65234;SDS011;51820;48.374;10.930;2022-11-20T04:52:09;6.15;;;2.30;;
65234;SDS011;51820;48.374;10.930;2022-11-20T04:54:39;5.20;;;2.08;;
65234;SDS011;51820;48.374;10.930;2022-11-20T04:57:07;5.70;;;2.13;;
65234;SDS011;51820;48.374;10.930;2022-11-20T04:59:40;6.55;;;2.40;;
65234;SDS011;51820;48.374;10.930;2022-11-20T05:02:09;6.35;;;2.20;;
65234;SDS011;51820;48.374;10.930;2022-11-20T05:04:37;5.30;;;1.80;;
65234;SDS011;51820;48.374;10.930;2022-11-20T05:07:06;6.18;;;1.98;;
65234;SDS011;51820;48.374;10.930;2022-11-20T05:09:34;5.32;;;2.15;;
65234;SDS011;51820;48.374;10.930;2022-11-20T05:12:06;5.95;;;2.40;;
65234;SDS011;51820;48.374;10.930;2022-11-20T05:14:35;5.53;;;2.08;;
65234;SDS011;51820;48.374;10.930;2022-11-20T05:17:03;5.75;;;1.98;;
65234;SDS011;51820;48.374;10.930;2022-11-20T05:19:31;6.53;;;2.10;;
65234;SDS011;51820;48.374;10.930;2022-11-20T05:22:00;5.90;;;2.08;;
65234;SDS011;51820;48.374;10.930;2022-11-20T05:24:29;7.32;;;2.30;;
65234;SDS011;51820;48.374;10.930;2022-11-20T05:26:57;5.75;;;2.08;;
65234;SDS011;51820;48.374;10.930;2022-11-20T05:29:27;6.40;;;2.00;;
65234;SDS011;51820;48.374;10.930;2022-11-20T05:31:55;6.60;;;2.20;;
65234;SDS011;51820;48.374;10.930;2022-11-20T05:34:23;6.15;;;2.00;;
65234;SDS011;51820;48.374;10.930;2022-11-20T05:36:52;5.82;;;2.05;;
65234;SDS011;51820;48.374;10.930;2022-11-20T05:39:20;5.55;;;2.10;;
65234;SDS011;51820;48.374;10.930;2022-11-20T05:41:49;5.90;;;2.28;;
65234;SDS011;51820;48.374;10.930;2022-11-20T05:44:39;5.85;;;2.22;;
65234;SDS011;51820;48.374;10.930;2022-11-20T05:47:07;5.07;;;1.90;;
65234;SDS011;51820;48.374;10.930;2022-11-20T05:49:36;5.60;;;2.10;;
65234;SDS011;51820;48.374;10.930;2022-11-20T05:52:04;5.80;;;1.60;;
65234;SDS011;51820;48.374;10.930;2022-11-20T05:54:33;5.57;;;1.97;;
65234;SDS011;51820;48.374;10.930;2022-11-20T05:57:02;5.90;;;1.90;;
65234;SDS011;51820;48.374;10.930;2022-11-20T05:59:30;5.43;;;2.10;;
65234;SDS011;51820;48.374;10.930;2022-11-20T06:02:00;5.72;;;2.25;;
65234;SDS011;51820;48.374;10.930;2022-11-20T06:04:28;5.75;;;2.10;;
65234;SDS011;51820;48.374;10.930;2022-11-20T06:06:57;5.70;;;2.13;;
65234;SDS011;51820;48.374;10.930;2022-11-20T06:09:25;7.30;;;2.13;;
65234;SDS011;51820;48.374;10.930;2022-11-20T06:11:54;5.53;;;1.67;;
65234;SDS011;51820;48.374;10.930;2022-11-20T06:14:23;5.20;;;1.83;;
65234;SDS011;51820;48.374;10.930;2022-11-20T06:16:51;6.13;;;2.20;;
65234;SDS011;51820;48.374;10.930;2022-11-20T06:19:21;5.75;;;2.03;;
65234;SDS011;51820;48.374;10.930;2022-11-20T06:21:49;6.20;;;1.90;;
65234;SDS011;51820;48.374;10.930;2022-11-20T06:24:17;7.43;;;1.80;;
65234;SDS011;51820;48.374;10.930;2022-11-20T06:26:46;6.70;;;1.98;;
65234;SDS011;51820;48.374;10.930;2022-11-20T06:29:14;5.13;;;1.70;;
65234;SDS011;51820;48.374;10.930;2022-11-20T06:31:43;5.30;;;1.92;;
65234;SDS011;51820;48.374;10.930;2022-11-20T06:34:11;4.53;;;1.55;;
65234;SDS011;51820;48.374;10.930;2022-11-20T06:36:41;4.82;;;1.90;;
65234;SDS011;51820;48.374;10.930;2022-11-20T06:39:09;4.80;;;1.63;;
65234;SDS011;51820;48.374;10.930;2022-11-20T06:41:38;5.95;;;1.92;;
65234;SDS011;51820;48.374;10.930;2022-11-20T06:44:06;5.20;;;1.80;;
65234;SDS011;51820;48.374;10.930;2022-11-20T06:46:34;6.05;;;1.95;;
65234;SDS011;51820;48.374;10.930;2022-11-20T06:49:03;5.47;;;2.00;;
65234;SDS011;51820;48.374;10.930;2022-11-20T06:51:32;6.28;;;1.80;;
65234;SDS011;51820;48.374;10.930;2022-11-20T06:54:02;5.47;;;2.17;;
65234;SDS011;51820;48.374;10.930;2022-11-20T06:56:30;6.47;;;2.20;;
65234;SDS011;51820;48.374;10.930;2022-11-20T06:59:03;5.90;;;2.08;;
65234;SDS011;51820;48.374;10.930;2022-11-20T07:01:32;7.25;;;2.20;;
65234;SDS011;51820;48.374;10.930;2022-11-20T07:04:01;5.78;;;2.00;;
65234;SDS011;51820;48.374;10.930;2022-11-20T07:06:30;5.95;;;2.38;;
65234;SDS011;51820;48.374;10.930;2022-11-20T07:08:58;5.20;;;1.80;;
65234;SDS011;51820;48.374;10.930;2022-11-20T07:11:29;5.55;;;2.00;;
65234;SDS011;51820;48.374;10.930;2022-11-20T07:13:57;4.97;;;1.60;;
65234;SDS011;51820;48.374;10.930;2022-11-20T07:16:26;7.82;;;1.95;;
65234;SDS011;51820;48.374;10.930;2022-11-20T07:18:54;5.93;;;2.20;;
65234;SDS011;51820;48.374;10.930;2022-11-20T07:21:22;7.90;;;1.90;;
65234;SDS011;51820;48.374;10.930;2022-11-20T07:23:51;4.75;;;1.70;;
65234;SDS011;51820;48.374;10.930;2022-11-20T07:26:22;5.82;;;1.88;;
65234;SDS011;51820;48.374;10.930;2022-11-20T07:28:52;6.40;;;2.17;;
65234;SDS011;51820;48.374;10.930;2022-11-20T07:31:20;5.85;;;2.00;;
65234;SDS011;51820;48.374;10.930;2022-11-20T07:33:49;5.33;;;1.80;;
65234;SDS011;51820;48.374;10.930;2022-11-20T07:36:17;6.03;;;2.00;;
65234;SDS011;51820;48.374;10.930;2022-11-20T07:38:45;5.80;;;2.10;;
65234;SDS011;51820;48.374;10.930;2022-11-20T07:41:14;5.13;;;2.00;;
65234;SDS011;51820;48.374;10.930;2022-11-20T07:43:42;8.13;;;2.38;;
65234;SDS011;51820;48.374;10.930;2022-11-20T07:46:12;6.27;;;2.17;;
65234;SDS011;51820;48.374;10.930;2022-11-20T07:48:40;5.28;;;2.13;;
65234;SDS011;51820;48.374;10.930;2022-11-20T07:51:08;5.82;;;1.95;;
65234;SDS011;51820;48.374;10.930;2022-11-20T07:53:37;6.85;;;2.22;;
65234;SDS011;51820;48.374;10.930;2022-11-20T07:56:06;6.50;;;2.20;;
65234;SDS011;51820;48.374;10.930;2022-11-20T07:58:34;7.40;;;2.10;;
65234;SDS011;51820;48.374;10.930;2022-11-20T08:01:03;8.02;;;2.30;;
65234;SDS011;51820;48.374;10.930;2022-11-20T08:03:33;6.97;;;2.20;;
65234;SDS011;51820;48.374;10.930;2022-11-20T08:06:04;6.05;;;2.25;;
65234;SDS011;51820;48.374;10.930;2022-11-20T08:08:32;5.25;;;1.90;;
65234;SDS011;51820;48.374;10.930;2022-11-20T08:11:07;6.10;;;2.00;;
65234;SDS011;51820;48.374;10.930;2022-11-20T08:13:50;5.43;;;2.05;;
65234;SDS011;51820;48.374;10.930;2022-11-20T08:16:36;6.32;;;1.90;;
65234;SDS011;51820;48.374;10.930;2022-11-20T08:19:06;5.82;;;2.05;;
65234;SDS011;51820;48.374;10.930;2022-11-20T08:21:34;4.85;;;1.85;;
65234;SDS011;51820;48.374;10.930;2022-11-20T08:24:04;7.07;;;2.00;;
65234;SDS011;51820;48.374;10.930;2022-11-20T08:26:33;5.47;;;2.00;;
65234;SDS011;51820;48.374;10.930;2022-11-20T08:29:02;5.88;;;1.90;;
65234;SDS011;51820;48.374;10.930;2022-11-20T08:31:31;4.60;;;1.60;;
65234;SDS011;51820;48.374;10.930;2022-11-20T08:34:00;5.78;;;2.17;;
65234;SDS011;51820;48.374;10.930;2022-11-20T08:36:36;5.18;;;1.80;;
65234;SDS011;51820;48.374;10.930;2022-11-20T08:39:05;5.88;;;2.00;;
65234;SDS011;51820;48.374;10.930;2022-11-20T08:41:33;6.32;;;2.05;;
65234;SDS011;51820;48.374;10.930;2022-11-20T08:44:03;5.85;;;2.10;;
65234;SDS011;51820;48.374;10.930;2022-11-20T08:46:33;6.05;;;1.98;;
65234;SDS011;51820;48.374;10.930;2022-11-20T08:49:03;6.50;;;2.33;;
65234;SDS011;51820;48.374;10.930;2022-11-20T08:51:32;5.60;;;2.10;;
65234;SDS011;51820;48.374;10.930;2022-11-20T08:54:02;5.53;;;1.92;;
65234;SDS011;51820;48.374;10.930;2022-11-20T08:56:32;5.47;;;1.95;;
65234;SDS011;51820;48.374;10.930;2022-11-20T08:59:00;5.38;;;2.00;;
65234;SDS011;51820;48.374;10.930;2022-11-20T09:01:48;6.82;;;1.70;;
65234;SDS011;51820;48.374;10.930;2022-11-20T09:04:17;5.70;;;1.88;;
65234;SDS011;51820;48.374;10.930;2022-11-20T09:06:46;6.03;;;1.80;;
65234;SDS011;51820;48.374;10.930;2022-11-20T09:09:19;4.72;;;1.67;;
65234;SDS011;51820;48.374;10.930;2022-11-20T09:11:48;6.40;;;1.92;;
65234;SDS011;51820;48.374;10.930;2022-11-20T09:14:17;5.30;;;1.95;;
65234;SDS011;51820;48.374;10.930;2022-11-20T09:16:45;4.75;;;1.60;;
65234;SDS011;51820;48.374;10.930;2022-11-20T09:19:14;6.53;;;1.90;;
65234;SDS011;51820;48.374;10.930;2022-11-20T09:22:05;5.22;;;1.80;;
65234;SDS011;51820;48.374;10.930;2022-11-20T09:25:08;7.22;;;2.20;;
65234;SDS011;51820;48.374;10.930;2022-11-20T09:27:37;4.65;;;1.65;;
65234;SDS011;51820;48.374;10.930;2022-11-20T09:30:08;5.35;;;1.60;;
65234;SDS011;51820;48.374;10.930;2022-11-20T09:32:38;5.25;;;1.90;;
65234;SDS011;51820;48.374;10.930;2022-11-20T09:35:07;4.78;;;1.70;;
65234;SDS011;51820;48.374;10.930;2022-11-20T09:37:38;5.80;;;1.90;;
65234;SDS011;51820;48.374;10.930;2022-11-20T09:40:10;6.82;;;2.08;;
65234;SDS011;51820;48.374;10.930;2022-11-20T09:42:47;7.90;;;2.25;;
65234;SDS011;51820;48.374;10.930;2022-11-20T09:45:23;5.15;;;1.90;;
65234;SDS011;51820;48.374;10.930;2022-11-20T09:48:01;6.50;;;2.00;;
65234;SDS011;51820;48.374;10.930;2022-11-20T09:50:43;5.25;;;1.75;;
65234;SDS011;51820;48.374;10.930;2022-11-20T09:53:20;5.00;;;1.90;;
65234;SDS011;51820;48.374;10.930;2022-11-20T09:55:55;6.22;;;1.80;;
65234;SDS011;51820;48.374;10.930;2022-11-20T09:58:25;7.57;;;1.88;;
65234;SDS011;51820;48.374;10.930;2022-11-20T10:01:00;5.03;;;1.77;;
65234;SDS011;51820;48.374;10.930;2022-11-20T10:03:38;5.72;;;1.75;;
65234;SDS011;51820;48.374;10.930;2022-11-20T10:06:11;5.43;;;1.60;;
65234;SDS011;51820;48.374;10.930;2022-11-20T10:08:44;6.90;;;1.50;;
65234;SDS011;51820;48.374;10.930;2022-11-20T10:11:24;6.28;;;1.35;;
65234;SDS011;51820;48.374;10.930;2022-11-20T10:14:05;4.80;;;1.67;;
65234;SDS011;51820;48.374;10.930;2022-11-20T10:16:47;5.60;;;1.85;;
65234;SDS011;51820;48.374;10.930;2022-11-20T10:19:40;6.47;;;1.77;;
65234;SDS011;51820;48.374;10.930;2022-11-20T10:22:23;6.25;;;1.60;;
65234;SDS011;51820;48.374;10.930;2022-11-20T10:25:04;4.63;;;1.30;;
65234;SDS011;51820;48.374;10.930;2022-11-20T10:27:46;4.30;;;1.35;;
65234;SDS011;51820;48.374;10.930;2022-11-20T10:30:22;5.50;;;1.33;;
65234;SDS011;51820;48.374;10.930;2022-11-20T10:32:52;4.18;;;1.20;;
65234;SDS011;51820;48.374;10.930;2022-11-20T10:35:39;4.78;;;1.27;;
65234;SDS011;51820;48.374;10.930;2022-11-20T10:38:16;4.30;;;1.50;;
65234;SDS011;51820;48.374;10.930;2022-11-20T10:40:51;4.28;;;1.35;;
65234;SDS011;51820;48.374;10.930;2022-11-20T10:43:44;4.35;;;1.30;;
65234;SDS011;51820;48.374;10.930;2022-11-20T10:46:20;4.55;;;1.48;;
65234;SDS011;51820;48.374;10.930;2022-11-20T10:48:53;4.35;;;1.38;;
65234;SDS011;51820;48.374;10.930;2022-11-20T10:51:26;4.10;;;1.30;;
65234;SDS011;51820;48.374;10.930;2022-11-20T10:54:10;5.00;;;1.30;;
65234;SDS011;51820;48.374;10.930;2022-11-20T10:56:47;4.40;;;1.10;;
65234;SDS011;51820;48.374;10.930;2022-11-20T10:59:27;4.05;;;1.20;;
65234;SDS011;51820;48.374;10.930;2022-11-20T11:02:18;4.03;;;1.02;;
65234;SDS011;51820;48.374;10.930;2022-11-20T11:04:49;4.55;;;1.40;;
65234;SDS011;51820;48.374;10.930;2022-11-20T11:07:22;3.55;;;0.95;;
65234;SDS011;51820;48.374;10.930;2022-11-20T11:09:54;4.22;;;1.15;;
65234;SDS011;51820;48.374;10.930;2022-11-20T11:12:25;4.13;;;0.97;;
65234;SDS011;51820;48.374;10.930;2022-11-20T11:14:56;3.72;;;1.00;;
65234;SDS011;51820;48.374;10.930;2022-11-20T11:17:26;6.95;;;1.15;;
65234;SDS011;51820;48.374;10.930;2022-11-20T11:19:57;4.80;;;1.20;;
65234;SDS011;51820;48.374;10.930;2022-11-20T11:22:42;3.88;;;1.25;;
65234;SDS011;51820;48.374;10.930;2022-11-20T11:25:22;5.50;;;1.10;;
65234;SDS011;51820;48.374;10.930;2022-11-20T11:27:56;3.45;;;0.98;;
65234;SDS011;51820;48.374;10.930;2022-11-20T11:30:42;4.25;;;1.00;;
65234;SDS011;51820;48.374;10.930;2022-11-20T11:33:18;4.63;;;1.25;;
65234;SDS011;51820;48.374;10.930;2022-11-20T11:35:49;5.10;;;1.10;;
65234;SDS011;51820;48.374;10.930;2022-11-20T11:38:21;3.72;;;1.13;;
65234;SDS011;51820;48.374;10.930;2022-11-20T11:40:54;4.43;;;1.40;;
65234;SDS011;51820;48.374;10.930;2022-11-20T11:43:28;3.95;;;1.10;;
65234;SDS011;51820;48.374;10.930;2022-11-20T11:46:28;3.42;;;1.02;;
65234;SDS011;51820;48.374;10.930;2022-11-20T11:48:59;3.70;;;1.13;;
65234;SDS011;51820;48.374;10.930;2022-11-20T11:51:54;4.90;;;0.80;;
65234;SDS011;51820;48.374;10.930;2022-11-20T11:54:29;3.28;;;0.85;;
65234;SDS011;51820;48.374;10.930;2022-11-20T11:57:09;4.32;;;1.20;;
65234;SDS011;51820;48.374;10.930;2022-11-20T11:59:56;4.97;;;1.00;;
65234;SDS011;51820;48.374;10.930;2022-11-20T12:02:34;3.75;;;1.05;;
65234;SDS011;51820;48.374;10.930;2022-11-20T12:05:10;3.70;;;0.90;;
65234;SDS011;51820;48.374;10.930;2022-11-20T12:07:45;3.83;;;1.10;;
65234;SDS011;51820;48.374;10.930;2022-11-20T12:10:20;7.25;;;1.00;;
65234;SDS011;51820;48.374;10.930;2022-11-20T12:12:54;3.47;;;0.90;;
65234;SDS011;51820;48.374;10.930;2022-11-20T12:15:46;4.70;;;1.20;;
65234;SDS011;51820;48.374;10.930;2022-11-20T12:18:17;4.27;;;1.20;;
65234;SDS011;51820;48.374;10.930;2022-11-20T12:20:51;4.60;;;1.33;;
65234;SDS011;51820;48.374;10.930;2022-11-20T12:23:35;4.05;;;1.10;;
65234;SDS011;51820;48.374;10.930;2022-11-20T12:26:21;3.65;;;1.20;;
65234;SDS011;51820;48.374;10.930;2022-11-20T12:29:02;7.15;;;1.50;;
65234;SDS011;51820;48.374;10.930;2022-11-20T12:31:43;5.50;;;1.85;;
65234;SDS011;51820;48.374;10.930;2022-11-20T12:37:25;4.05;;;0.98;;
65234;SDS011;51820;48.374;10.930;2022-11-20T12:40:27;4.50;;;1.10;;
65234;SDS011;51820;48.374;10.930;2022-11-20T12:43:06;5.40;;;1.10;;
65234;SDS011;51820;48.374;10.930;2022-11-20T12:48:53;3.83;;;1.10;;
65234;SDS011;51820;48.374;10.930;2022-11-20T12:54:46;5.35;;;1.40;;
65234;SDS011;51820;48.374;10.930;2022-11-20T12:57:39;4.93;;;1.40;;
65234;SDS011;51820;48.374;10.930;2022-11-20T13:00:14;4.93;;;1.58;;
65234;SDS011;51820;48.374;10.930;2022-11-20T13:03:06;4.47;;;1.42;;
65234;SDS011;51820;48.374;10.930;2022-11-20T13:05:55;5.20;;;1.33;;
65234;SDS011;51820;48.374;10.930;2022-11-20T13:08:34;7.25;;;2.33;;
65234;SDS011;51820;48.374;10.930;2022-11-20T13:11:07;5.25;;;1.25;;
65234;SDS011;51820;48.374;10.930;2022-11-20T13:13:42;4.50;;;1.30;;
65234;SDS011;51820;48.374;10.930;2022-11-20T13:16:17;4.50;;;1.52;;
65234;SDS011;51820;48.374;10.930;2022-11-20T13:18:52;5.60;;;1.50;;
65234;SDS011;51820;48.374;10.930;2022-11-20T13:21:21;4.28;;;1.30;;
65234;SDS011;51820;48.374;10.930;2022-11-20T13:24:05;4.50;;;1.30;;
65234;SDS011;51820;48.374;10.930;2022-11-20T13:26:33;6.27;;;1.60;;
65234;SDS011;51820;48.374;10.930;2022-11-20T13:29:03;7.57;;;1.65;;
65234;SDS011;51820;48.374;10.930;2022-11-20T13:31:39;5.32;;;1.30;;
65234;SDS011;51820;48.374;10.930;2022-11-20T13:34:13;6.75;;;1.38;;
65234;SDS011;51820;48.374;10.930;2022-11-20T13:36:53;6.18;;;1.48;;
65234;SDS011;51820;48.374;10.930;2022-11-20T13:39:28;4.68;;;1.48;;
65234;SDS011;51820;48.374;10.930;2022-11-20T13:41:58;7.25;;;1.50;;
65234;SDS011;51820;48.374;10.930;2022-11-20T13:44:29;4.45;;;1.30;;
65234;SDS011;51820;48.374;10.930;2022-11-20T13:47:04;6.93;;;1.70;;
65234;SDS011;51820;48.374;10.930;2022-11-20T13:49:48;5.75;;;1.33;;
65234;SDS011;51820;48.374;10.930;2022-11-20T13:52:27;5.97;;;1.25;;
65234;SDS011;51820;48.374;10.930;2022-11-20T13:55:12;4.22;;;1.27;;
65234;SDS011;51820;48.374;10.930;2022-11-20T13:58:00;5.30;;;1.35;;
65234;SDS011;51820;48.374;10.930;2022-11-20T14:00:41;4.70;;;1.27;;
65234;SDS011;51820;48.374;10.930;2022-11-20T14:03:16;5.05;;;1.83;;
65234;SDS011;51820;48.374;10.930;2022-11-20T14:06:27;5.20;;;1.40;;
65234;SDS011;51820;48.374;10.930;2022-11-20T14:09:24;5.30;;;1.40;;
65234;SDS011;51820;48.374;10.930;2022-11-20T14:12:01;4.53;;;1.50;;
65234;SDS011;51820;48.374;10.930;2022-11-20T14:14:47;4.40;;;1.48;;
65234;SDS011;51820;48.374;10.930;2022-11-20T14:17:21;4.00;;;1.30;;
65234;SDS011;51820;48.374;10.930;2022-11-20T14:19:54;5.72;;;1.33;;
65234;SDS011;51820;48.374;10.930;2022-11-20T14:22:29;6.15;;;1.30;;
65234;SDS011;51820;48.374;10.930;2022-11-20T14:25:03;5.75;;;1.80;;
65234;SDS011;51820;48.374;10.930;2022-11-20T14:27:35;5.00;;;1.67;;
65234;SDS011;51820;48.374;10.930;2022-11-20T14:30:11;4.85;;;1.30;;
65234;SDS011;51820;48.374;10.930;2022-11-20T14:33:14;4.78;;;1.17;;
65234;SDS011;51820;48.374;10.930;2022-11-20T14:35:44;5.00;;;1.30;;
65234;SDS011;51820;48.374;10.930;2022-11-20T14:38:18;4.97;;;1.20;;
65234;SDS011;51820;48.374;10.930;2022-11-20T14:40:50;5.20;;;1.20;;
65234;SDS011;51820;48.374;10.930;2022-11-20T14:46:47;4.80;;;1.20;;
65234;SDS011;51820;48.374;10.930;2022-11-20T14:49:17;6.68;;;1.30;;
65234;SDS011;51820;48.374;10.930;2022-11-20T14:51:58;4.43;;;1.30;;
65234;SDS011;51820;48.374;10.930;2022-11-20T14:54:27;3.95;;;1.13;;
65234;SDS011;51820;48.374;10.930;2022-11-20T15:03:35;7.95;;;3.25;;
65234;SDS011;51820;48.374;10.930;2022-11-20T15:07:25;5.20;;;1.25;;
65234;SDS011;51820;48.374;10.930;2022-11-20T15:14:22;4.10;;;1.23;;
65234;SDS011;51820;48.374;10.930;2022-11-20T15:17:42;5.07;;;1.40;;
65234;SDS011;51820;48.374;10.930;2022-11-20T15:27:56;4.22;;;1.08;;
65234;SDS011;51820;48.374;10.930;2022-11-20T15:32:07;4.75;;;1.40;;
65234;SDS011;51820;48.374;10.930;2022-11-20T15:37:34;4.45;;;1.00;;
65234;SDS011;51820;48.374;10.930;2022-11-20T15:40:09;3.10;;;0.70;;
65234;SDS011;51820;48.374;10.930;2022-11-20T15:46:45;3.30;;;0.90;;
65234;SDS011;51820;48.374;10.930;2022-11-20T15:56:56;4.10;;;0.80;;